Time;durP1;ratioP1;P1;durP2;ratioP2;P2;SDS_P1;SDS_P2;PMS_P1;PMS_P2;Temp;Humidity;BMP_temperature;BMP_pressure;BME280_temperature;BME280_humidity;BME280_pressure;Samples;Min_cycle;Max_cycle;Signal;HPM_P1;HPM_P2
2024/03/31 00:02:16;;;;;;;;;;;;;;;-144.99;93.78;52472.56;5068641;28;19955;-70
2024/03/31 00:04:41;;;;;;;;;;;;;;;-144.99;94.04;52480.72;5057861;28;20028;-73
2024/03/31 00:07:09;;;;;;;;;;;;;;;-144.99;94.08;52458.28;5061607;28;20023;-73
2024/03/31 00:09:35;;;;;;;;;;;;;;;-144.99;94.09;52480.72;5058698;28;20425;-72
2024/03/31 00:12:01;;;;;;;;;;;;;;;-144.99;94.43;52452.16;5056512;28;19928;-73
2024/03/31 00:14:27;;;;;;;;;;;;;;;-144.99;94.43;52468.47;5057893;28;19924;-72
2024/03/31 00:16:53;;;;;;;;;;;;;;;-144.99;95.09;52462.34;5060443;28;19928;-72
2024/03/31 00:19:19;;;;;;;;;;;;;;;-144.99;95.42;52484.78;5073490;28;19929;-70
2024/03/31 00:21:45;;;;;;;;;;;;;;;-144.99;96.07;52501.09;5067013;28;20076;-74
2024/03/31 00:24:12;;;;;;;;;;;;;;;-144.99;95.95;52515.34;5067167;28;19964;-73
2024/03/31 00:26:39;;;;;;;;;;;;;;;-144.99;96.14;52503.13;5067144;28;20035;-72
2024/03/31 00:29:04;;;;;;;;;;;;;;;-144.99;96.11;52456.25;5074173;28;20177;-72
2024/03/31 00:31:31;;;;;;;;;;;;;;;-144.99;96.49;52454.22;5063395;28;19924;-71
2024/03/31 00:33:56;;;;;;;;;;;;;;;-144.99;96.89;52456.25;5066826;28;20413;-72
2024/03/31 00:36:23;;;;;;;;;;;;;;;-144.99;96.86;52488.84;5056303;28;19933;-70
2024/03/31 00:38:48;;;;;;;;;;;;;;;-144.99;97.16;52452.16;5065957;28;19936;-69
2024/03/31 00:41:16;;;;;;;;;;;;;;;-144.99;96.99;52464.41;5063959;28;19956;-70
2024/03/31 00:43:41;;;;;;;;;;;;;;;-144.99;97.12;52488.84;5060546;28;20433;-69
2024/03/31 00:46:08;;;;;;;;;;;;;;;-144.99;97.74;52472.56;5062895;28;19925;-71
2024/03/31 00:48:34;;;;;;;;;;;;;;;-144.99;98.05;52474.59;5067393;28;20390;-71
2024/03/31 00:51:00;;;;;;;;;;;;;;;-144.99;98.04;52474.59;5061616;28;19950;-70
2024/03/31 00:53:26;;;;;;;;;;;;;;;-144.99;98.19;52448.09;5056581;28;20394;-70
2024/03/31 00:55:52;;;;;;;;;;;;;;;-144.99;98.16;52448.09;5060621;28;19972;-72
2024/03/31 00:58:19;;;;;;;;;;;;;;;-144.99;98.23;52484.78;5066545;28;19924;-74
2024/03/31 01:00:46;;;;;;;;;;;;;;;-144.99;98.19;52464.41;5059808;28;19930;-71
2024/03/31 01:03:12;;;;;;;;;;;;;;;-144.99;98.33;52521.47;5070468;28;20006;-74
2024/03/31 01:05:38;;;;;;;;;;;;;;;-144.99;98.49;52499.06;5071917;28;19950;-74
2024/03/31 01:08:04;;;;;;;;;;;;;;;-144.99;98.58;52476.63;5055773;28;20024;-74
2024/03/31 01:10:32;;;;;;;;;;;;;;;-144.99;98.92;52476.63;5062945;28;20016;-74
2024/03/31 01:12:58;;;;;;;;;;;;;;;-144.99;98.99;52488.84;5072761;28;19928;-73
2024/03/31 01:15:26;;;;;;;;;;;;;;;-144.99;98.98;52460.31;5056550;28;19933;-73
2024/03/31 01:17:51;;;;;;;;;;;;;;;-144.99;98.92;52460.31;5068680;28;20263;-73
2024/03/31 01:20:18;;;;;;;;;;;;;;;-144.99;99.13;52468.47;5067060;28;19979;-73
2024/03/31 01:22:44;;;;;;;;;;;;;;;-144.99;99.00;52497.00;5067861;28;19959;-75
2024/03/31 01:25:12;;;;;;;;;;;;;;;-144.99;98.94;52468.47;5065101;28;20021;-75
2024/03/31 01:27:37;;;;;;;;;;;;;;;-144.99;98.86;52480.72;5070731;28;19959;-75
2024/03/31 01:30:04;;;;;;;;;;;;;;;-144.99;98.92;52476.63;5063376;28;20358;-75
2024/03/31 01:32:30;;;;;;;;;;;;;;;-144.99;98.84;52468.47;5061103;28;19935;-71
2024/03/31 01:34:56;;;;;;;;;;;;;;;-144.99;98.72;52448.09;5063856;28;20011;-71
2024/03/31 01:37:22;;;;;;;;;;;;;;;-144.99;98.69;52466.44;5063657;28;19924;-75
2024/03/31 01:39:48;;;;;;;;;;;;;;;-144.99;98.82;52488.84;5065302;28;19931;-75
2024/03/31 01:42:16;;;;;;;;;;;;;;;-144.99;98.68;52452.16;5064440;28;19971;-77
2024/03/31 01:44:42;;;;;;;;;;;;;;;-144.99;98.89;52497.00;5060598;28;19944;-77
2024/03/31 01:47:08;;;;;;;;;;;;;;;-144.99;98.98;52466.44;5063313;28;20374;-77
2024/03/31 01:49:34;;;;;;;;;;;;;;;-144.99;99.06;52468.47;5064295;28;19929;-77
2024/03/31 01:52:00;;;;;;;;;;;;;;;-144.99;99.12;52464.41;5072351;28;19983;-76
2024/03/31 01:54:26;;;;;;;;;;;;;;;-144.99;99.13;52472.56;5059225;28;19925;-76
2024/03/31 01:56:52;;;;;;;;;;;;;;;-144.99;99.39;52474.59;5060127;28;20045;-76
2024/03/31 01:59:20;;;;;;;;;;;;;;;-144.99;99.27;52484.78;5067585;28;19984;-76
2024/03/31 02:01:46;;;;;;;;;;;;;;;-144.99;99.36;52476.63;5061110;28;20439;-76
2024/03/31 02:04:12;;;;;;;;;;;;;;;-144.99;99.55;52513.31;5055339;28;19924;-72
2024/03/31 02:06:38;;;;;;;;;;;;;;;-144.99;99.49;52476.63;5072105;28;20440;-71
2024/03/31 02:09:05;;;;;;;;;;;;;;;-144.99;99.36;52444.03;5057650;28;19929;-72
2024/03/31 02:11:30;;;;;;;;;;;;;;;-144.99;99.39;52501.09;5060794;28;19979;-73
2024/03/31 02:13:57;;;;;;;;;;;;;;;-144.99;99.36;52439.94;5053133;28;19967;-72
2024/03/31 02:16:25;;;;;;;;;;;;;;;-144.99;99.43;52488.84;5053364;28;19925;-73
2024/03/31 02:18:50;;;;;;;;;;;;;;;-144.99;99.28;52482.75;5064063;28;19924;-73
2024/03/31 02:21:16;;;;;;;;;;;;;;;-144.99;99.29;52488.84;5066115;28;19929;-72
2024/03/31 02:23:42;;;;;;;;;;;;;;;-144.99;99.38;52464.41;5066498;28;19962;-75
2024/03/31 02:26:08;;;;;;;;;;;;;;;-144.99;99.62;52503.13;5073736;28;19923;-72
2024/03/31 02:28:36;;;;;;;;;;;;;;;-144.99;99.42;52505.16;5080437;28;20019;-72
2024/03/31 02:31:02;;;;;;;;;;;;;;;-144.99;99.61;52472.56;5076213;28;19929;-72
2024/03/31 02:33:29;;;;;;;;;;;;;;;-144.99;99.67;52480.72;5071455;28;19928;-72
2024/03/31 02:35:55;;;;;;;;;;;;;;;-144.99;99.48;52476.63;5061441;28;19933;-72
2024/03/31 02:38:21;;;;;;;;;;;;;;;-144.99;99.46;52468.47;5072292;28;20027;-78
2024/03/31 02:40:47;;;;;;;;;;;;;;;-144.99;99.50;52492.94;5065251;28;20011;-77
2024/03/31 02:43:13;;;;;;;;;;;;;;;-144.99;99.34;52444.03;5069028;28;20444;-70
2024/03/31 02:45:39;;;;;;;;;;;;;;;-144.99;99.27;52460.31;5069023;28;19928;-74
2024/03/31 02:48:05;;;;;;;;;;;;;;;-144.99;99.31;52501.09;5064180;28;19944;-75
2024/03/31 02:50:33;;;;;;;;;;;;;;;-144.99;99.49;52499.06;5062390;28;20027;-74
2024/03/31 02:52:59;;;;;;;;;;;;;;;-144.99;99.56;52448.09;5062454;28;20358;-75
2024/03/31 02:55:25;;;;;;;;;;;;;;;-144.99;99.51;52460.31;5059587;28;20023;-75
2024/03/31 02:57:51;;;;;;;;;;;;;;;-144.99;99.36;52476.63;5059884;28;19925;-74
2024/03/31 03:00:17;;;;;;;;;;;;;;;-144.99;99.38;52476.63;5067020;28;19928;-74
2024/03/31 03:02:43;;;;;;;;;;;;;;;-144.99;99.31;52466.44;5059466;28;19924;-75
2024/03/31 03:05:10;;;;;;;;;;;;;;;-144.99;99.64;52490.91;5067479;28;20463;-73
2024/03/31 03:07:36;;;;;;;;;;;;;;;-144.99;99.53;52444.03;5071023;28;20373;-73
2024/03/31 03:10:03;;;;;;;;;;;;;;;-144.99;99.54;52452.16;5068685;28;20342;-73
2024/03/31 03:12:29;;;;;;;;;;;;;;;-144.99;99.47;52484.78;5062855;28;19943;-73
2024/03/31 03:14:55;;;;;;;;;;;;;;;-144.99;99.58;52468.47;5070912;28;20298;-73
2024/03/31 03:17:21;;;;;;;;;;;;;;;-144.99;99.66;52472.56;5066035;28;19992;-72
2024/03/31 03:19:47;;;;;;;;;;;;;;;-144.99;99.47;52501.09;5067947;28;20367;-72
2024/03/31 03:22:13;;;;;;;;;;;;;;;-144.99;99.31;52470.50;5068432;28;20322;-70
2024/03/31 03:24:41;;;;;;;;;;;;;;;-144.99;99.34;52515.34;5065322;28;19925;-71
2024/03/31 03:27:06;;;;;;;;;;;;;;;-144.99;99.20;52433.81;5067245;28;20023;-71
2024/03/31 03:29:33;;;;;;;;;;;;;;;-144.99;99.01;52478.66;5070106;28;20015;-71
2024/03/31 03:31:59;;;;;;;;;;;;;;;-144.99;98.95;52468.47;5059826;28;19928;-71
2024/03/31 03:34:25;;;;;;;;;;;;;;;-144.99;99.07;52431.78;5067789;28;19929;-73
2024/03/31 03:36:50;;;;;;;;;;;;;;;-144.99;99.07;52484.78;5081578;28;20003;-72
2024/03/31 03:39:17;;;;;;;;;;;;;;;-144.99;99.04;52464.41;5080773;28;19947;-71
2024/03/31 03:41:45;;;;;;;;;;;;;;;-144.99;98.92;52494.97;5076784;28;19924;-71
2024/03/31 03:44:11;;;;;;;;;;;;;;;-144.99;98.86;52468.47;5074865;28;20382;-71
2024/03/31 03:46:37;;;;;;;;;;;;;;;-144.99;98.72;52456.25;5061124;28;19971;-72
2024/03/31 03:49:03;;;;;;;;;;;;;;;-144.99;98.66;52464.41;5059751;28;20191;-73
2024/03/31 03:51:29;;;;;;;;;;;;;;;-144.99;98.59;52488.84;5065114;28;20481;-72
2024/03/31 03:53:55;;;;;;;;;;;;;;;-144.99;98.54;52468.47;5054789;28;20080;-72
2024/03/31 03:56:21;;;;;;;;;;;;;;;-144.99;98.40;52439.94;5065409;28;20007;-73
2024/03/31 03:58:48;;;;;;;;;;;;;;;-144.99;98.30;52466.44;5060295;28;19933;-73
2024/03/31 04:01:15;;;;;;;;;;;;;;;-144.99;98.33;52497.00;5068314;28;20907;-74
2024/03/31 04:03:40;;;;;;;;;;;;;;;-144.99;98.37;52452.16;5056860;22;19936;-65
2024/03/31 04:06:07;;;;;;;;;;;;;;;-144.99;98.22;52482.75;5026680;28;20432;-65
2024/03/31 04:08:32;;;;;;;;;;;;;;;-144.99;98.15;52456.25;5027198;28;19985;-65
2024/03/31 04:10:59;;;;;;;;;;;;;;;-144.99;98.13;52468.47;5023314;28;19968;-65
2024/03/31 04:13:24;;;;;;;;;;;;;;;-144.99;98.19;52452.16;5009254;28;20029;-67
2024/03/31 04:15:59;;;;;;;;;;;;;;;-144.99;98.23;52439.94;5017295;28;20008;-67
2024/03/31 04:18:24;;;;;;;;;;;;;;;-144.99;98.11;52494.97;5010142;28;19957;-68
2024/03/31 04:20:51;;;;;;;;;;;;;;;-144.99;98.15;52474.59;5015323;28;20397;-70
2024/03/31 04:23:16;;;;;;;;;;;;;;;-144.99;97.86;52501.09;5003679;28;19967;-67
2024/03/31 04:25:43;;;;;;;;;;;;;;;-144.99;97.85;52456.25;5008415;28;19979;-66
2024/03/31 04:28:08;;;;;;;;;;;;;;;-144.99;97.87;52464.41;5006332;28;19955;-65
2024/03/31 04:30:40;;;;;;;;;;;;;;;-144.99;97.84;52497.00;4993503;28;19995;-67
2024/03/31 04:33:06;;;;;;;;;;;;;;;-144.99;97.95;52468.47;5008650;28;20004;-67
2024/03/31 04:35:35;;;;;;;;;;;;;;;-144.99;97.88;52448.09;5014827;28;19929;-69
2024/03/31 04:38:00;;;;;;;;;;;;;;;-144.99;97.90;52484.78;5005406;28;19999;-68
2024/03/31 04:40:27;;;;;;;;;;;;;;;-144.99;97.86;52448.09;5004268;28;20383;-69
2024/03/31 04:42:52;;;;;;;;;;;;;;;-144.99;97.76;52464.41;5017117;28;20016;-69
2024/03/31 04:45:19;;;;;;;;;;;;;;;-144.99;97.75;52435.88;5015894;28;20032;-66
2024/03/31 04:47:44;;;;;;;;;;;;;;;-144.99;97.89;52480.72;5012493;28;19929;-66
2024/03/31 04:50:12;;;;;;;;;;;;;;;-144.99;97.83;52460.31;5017301;28;20011;-65
2024/03/31 04:52:37;;;;;;;;;;;;;;;-144.99;97.75;52448.09;5013685;28;19961;-65
2024/03/31 04:55:04;;;;;;;;;;;;;;;-144.99;97.71;52460.31;5008663;28;19964;-66
2024/03/31 04:57:30;;;;;;;;;;;;;;;-144.99;97.68;52490.91;5019218;28;19964;-66
2024/03/31 04:59:56;;;;;;;;;;;;;;;-144.99;97.64;52482.75;5007532;28;19968;-68
2024/03/31 05:02:22;;;;;;;;;;;;;;;-144.99;97.69;52456.25;5013425;28;19925;-67
2024/03/31 05:04:48;;;;;;;;;;;;;;;-144.99;97.53;52456.25;5015088;28;20016;-67
2024/03/31 05:07:15;;;;;;;;;;;;;;;-144.99;97.36;52486.81;5012483;28;20028;-66
2024/03/31 05:09:41;;;;;;;;;;;;;;;-144.99;97.30;52456.25;5021961;28;20379;-66
2024/03/31 05:12:09;;;;;;;;;;;;;;;-144.99;97.42;52480.72;5012435;28;21377;-66
2024/03/31 05:14:35;;;;;;;;;;;;;;;-144.99;97.25;52468.47;5012876;28;19948;-68
2024/03/31 05:17:03;;;;;;;;;;;;;;;-144.99;97.13;52501.09;5006403;28;19926;-67
2024/03/31 05:19:29;;;;;;;;;;;;;;;-144.99;97.24;52452.16;5004262;28;19942;-67
2024/03/31 05:21:55;;;;;;;;;;;;;;;-144.99;97.12;52464.41;5008592;28;19979;-66
2024/03/31 05:24:23;;;;;;;;;;;;;;;-144.99;97.12;52480.72;5011539;28;20340;-67
2024/03/31 05:26:49;;;;;;;;;;;;;;;-144.99;96.96;52468.47;5010528;28;20028;-69
2024/03/31 05:29:19;;;;;;;;;;;;;;;-144.99;96.94;52429.75;5008294;28;20011;-67
2024/03/31 05:31:45;;;;;;;;;;;;;;;-144.99;97.03;52446.06;5011730;28;20373;-67
2024/03/31 05:34:11;;;;;;;;;;;;;;;-144.99;96.93;52468.47;5007868;28;19929;-68
2024/03/31 05:36:37;;;;;;;;;;;;;;;-144.99;96.99;52478.66;5015007;28;20040;-68
2024/03/31 05:39:03;;;;;;;;;;;;;;;-144.99;96.91;52439.94;5011847;28;20024;-68
2024/03/31 05:41:31;;;;;;;;;;;;;;;-144.99;96.89;52464.41;5014672;28;20020;-68
2024/03/31 05:43:58;;;;;;;;;;;;;;;-144.99;96.89;52462.34;5000234;28;19929;-67
2024/03/31 05:46:24;;;;;;;;;;;;;;;-144.99;96.98;52492.94;5007662;28;20033;-66
2024/03/31 05:48:50;;;;;;;;;;;;;;;-144.99;96.98;52456.25;5012446;28;20020;-69
2024/03/31 05:51:15;;;;;;;;;;;;;;;-144.99;96.81;52444.03;5010714;28;19988;-69
2024/03/31 05:53:42;;;;;;;;;;;;;;;-144.99;96.67;52452.16;5016703;28;19932;-66
2024/03/31 05:56:07;;;;;;;;;;;;;;;-144.99;96.75;52488.84;5015062;28;19929;-67
2024/03/31 05:58:36;;;;;;;;;;;;;;;-144.99;96.70;52450.13;5011613;28;20389;-71
2024/03/31 06:01:01;;;;;;;;;;;;;;;-144.99;96.81;52456.25;5013737;28;19925;-70
2024/03/31 06:03:28;;;;;;;;;;;;;;;-144.99;96.77;52494.97;5009189;28;19929;-72
2024/03/31 06:05:53;;;;;;;;;;;;;;;-144.99;96.70;52480.72;5010974;28;19943;-69
2024/03/31 06:08:20;;;;;;;;;;;;;;;-144.99;96.65;52472.56;5009981;28;19929;-70
2024/03/31 06:10:45;;;;;;;;;;;;;;;-144.99;96.65;52460.31;5016862;28;20412;-69
2024/03/31 06:13:12;;;;;;;;;;;;;;;-144.99;96.78;52490.91;5023918;28;19929;-70
2024/03/31 06:15:39;;;;;;;;;;;;;;;-144.99;96.70;52470.50;5020704;28;20027;-68
2024/03/31 06:18:05;;;;;;;;;;;;;;;-144.99;96.70;52468.47;5000208;28;19926;-68
2024/03/31 06:20:31;;;;;;;;;;;;;;;-144.99;96.73;52462.34;5019624;28;19933;-68
2024/03/31 06:22:59;;;;;;;;;;;;;;;-144.99;96.99;52517.41;5013351;28;19930;-68
2024/03/31 06:25:24;;;;;;;;;;;;;;;-144.99;96.86;52452.16;5008037;28;20004;-68
2024/03/31 06:27:50;;;;;;;;;;;;;;;-144.99;96.90;52456.25;5014083;28;20303;-69
2024/03/31 06:30:16;;;;;;;;;;;;;;;-144.99;96.84;52411.41;5008796;28;20388;-68
2024/03/31 06:32:44;;;;;;;;;;;;;;;-144.99;96.83;52460.31;5012860;28;20035;-67
2024/03/31 06:35:09;;;;;;;;;;;;;;;-144.99;96.91;52456.25;5011139;28;20292;-68
2024/03/31 06:37:36;;;;;;;;;;;;;;;-144.99;96.82;52452.16;4982543;28;19944;-70
2024/03/31 06:40:01;;;;;;;;;;;;;;;-144.99;96.86;52480.72;5006981;28;19929;-69
2024/03/31 06:42:28;;;;;;;;;;;;;;;-144.99;96.77;52492.94;5011390;28;20411;-69
2024/03/31 06:44:53;;;;;;;;;;;;;;;-144.99;96.67;52476.63;5009098;28;19931;-71
2024/03/31 06:47:20;;;;;;;;;;;;;;;-144.99;96.62;52472.56;5024561;28;20016;-71
2024/03/31 06:49:47;;;;;;;;;;;;;;;-144.99;96.78;52472.56;5024771;28;19995;-70
2024/03/31 06:52:13;;;;;;;;;;;;;;;-144.99;96.56;52484.78;5021303;28;20252;-70
2024/03/31 06:54:39;;;;;;;;;;;;;;;-144.99;96.61;52470.50;5014208;28;20032;-69
2024/03/31 06:57:05;;;;;;;;;;;;;;;-144.99;96.78;52488.84;5004314;28;20378;-71
2024/03/31 06:59:31;;;;;;;;;;;;;;;-144.99;96.70;52460.31;5013858;28;19925;-69
2024/03/31 07:01:57;;;;;;;;;;;;;;;-144.99;96.70;52470.50;4997175;28;19932;-70
2024/03/31 07:04:23;;;;;;;;;;;;;;;-144.99;96.65;52480.72;5017098;28;20002;-71
2024/03/31 07:06:51;;;;;;;;;;;;;;;-144.99;96.54;52472.56;5010865;28;19964;-70
2024/03/31 07:09:17;;;;;;;;;;;;;;;-144.99;96.61;52480.72;5016639;28;19936;-68
2024/03/31 07:11:43;;;;;;;;;;;;;;;-144.99;96.52;52452.16;5011579;28;20344;-69
2024/03/31 07:14:09;;;;;;;;;;;;;;;-144.99;96.52;52464.41;4996254;28;20207;-67
2024/03/31 07:16:35;;;;;;;;;;;;;;;-144.99;96.49;52488.84;5010471;28;20027;-65
2024/03/31 07:19:01;;;;;;;;;;;;;;;-144.99;96.78;52448.09;5010127;28;20140;-68
2024/03/31 07:21:27;;;;;;;;;;;;;;;-144.99;96.71;52486.81;5014824;28;20471;-69
2024/03/31 07:23:54;;;;;;;;;;;;;;;-144.99;96.87;52472.56;5026969;28;20374;-69
2024/03/31 07:26:20;;;;;;;;;;;;;;;-144.99;97.17;52444.03;5016035;28;20003;-70
2024/03/31 07:28:46;;;;;;;;;;;;;;;-144.99;97.37;52468.47;5014189;28;19929;-69
2024/03/31 07:31:12;;;;;;;;;;;;;;;-144.99;97.62;52460.31;5015505;28;19929;-69
2024/03/31 07:33:38;;;;;;;;;;;;;;;-144.99;97.61;52452.16;5020244;28;20071;-69
2024/03/31 07:36:05;;;;;;;;;;;;;;;-144.99;97.85;52452.16;5021009;28;20327;-69
2024/03/31 07:38:30;;;;;;;;;;;;;;;-144.99;98.11;52433.81;5004872;28;19925;-68
2024/03/31 07:40:58;;;;;;;;;;;;;;;-144.99;98.23;52464.41;5005637;28;20027;-68
2024/03/31 07:43:24;;;;;;;;;;;;;;;-144.99;98.26;52452.16;5009596;28;19989;-68
2024/03/31 07:45:51;;;;;;;;;;;;;;;-144.99;98.37;52415.47;5017966;28;19932;-68
2024/03/31 07:48:16;;;;;;;;;;;;;;;-144.99;98.28;52407.31;5020462;28;19932;-68
2024/03/31 07:50:44;;;;;;;;;;;;;;;-144.99;98.21;52444.03;5020626;28;20721;-69
2024/03/31 07:53:10;;;;;;;;;;;;;;;-144.99;97.90;52444.03;5018353;28;20425;-67
2024/03/31 07:55:36;;;;;;;;;;;;;;;-144.99;97.83;52468.47;5008303;28;19938;-67
2024/03/31 07:58:05;;;;;;;;;;;;;;;-144.99;97.99;52444.03;5019129;28;19952;-68
2024/03/31 08:00:31;;;;;;;;;;;;;;;-144.99;98.19;52456.25;5000758;28;20336;-70
2024/03/31 08:02:57;;;;;;;;;;;;;;;-144.99;98.43;52472.56;5014525;28;19995;-70
2024/03/31 08:05:23;;;;;;;;;;;;;;;-144.99;98.71;52460.31;5010407;28;19929;-70
2024/03/31 08:07:49;;;;;;;;;;;;;;;-144.99;98.65;52470.50;5019986;28;20236;-70
2024/03/31 08:10:15;;;;;;;;;;;;;;;-144.99;99.03;52462.34;5002967;28;19980;-70
2024/03/31 08:12:41;;;;;;;;;;;;;;;-144.99;98.94;52484.78;5011776;28;20019;-70
2024/03/31 08:15:09;;;;;;;;;;;;;;;-144.99;99.11;52468.47;5018369;28;20032;-70
2024/03/31 08:17:34;;;;;;;;;;;;;;;-144.99;99.07;52480.72;4994704;28;19956;-70
2024/03/31 08:20:01;;;;;;;;;;;;;;;-144.99;99.21;52488.84;5012294;28;20171;-69
2024/03/31 08:22:26;;;;;;;;;;;;;;;-144.99;99.03;52458.28;5009586;28;19961;-70
2024/03/31 08:24:53;;;;;;;;;;;;;;;-144.99;99.11;52464.41;5012836;28;20026;-69
2024/03/31 08:27:18;;;;;;;;;;;;;;;-144.99;99.20;52444.03;5013654;28;20369;-69
2024/03/31 08:29:45;;;;;;;;;;;;;;;-144.99;99.20;52429.75;5010294;28;19926;-69
2024/03/31 08:32:12;;;;;;;;;;;;;;;-144.99;99.28;52472.56;5006867;28;20466;-67
2024/03/31 08:34:38;;;;;;;;;;;;;;;-144.99;99.30;52423.63;5019047;28;19975;-67
2024/03/31 08:37:04;;;;;;;;;;;;;;;-144.99;99.13;52423.63;5008235;28;20370;-68
2024/03/31 08:39:31;;;;;;;;;;;;;;;-144.99;99.08;52497.00;5003476;28;19956;-67
2024/03/31 08:41:58;;;;;;;;;;;;;;;-144.99;99.15;52472.56;5012228;28;20327;-70
2024/03/31 08:44:25;;;;;;;;;;;;;;;-144.99;99.08;52435.88;5010882;28;19925;-69
2024/03/31 08:46:52;;;;;;;;;;;;;;;-144.99;99.03;52435.88;5012638;28;19940;-67
2024/03/31 08:49:21;;;;;;;;;;;;;;;-144.99;98.90;52460.31;5009769;28;19932;-70
2024/03/31 08:51:47;;;;;;;;;;;;;;;-144.99;98.83;52452.16;5006052;28;19969;-69
2024/03/31 08:54:14;;;;;;;;;;;;;;;-144.99;98.68;52437.91;5010117;28;19936;-69
2024/03/31 08:56:39;;;;;;;;;;;;;;;-144.99;98.76;52464.41;5009018;28;20044;-69
2024/03/31 08:59:06;;;;;;;;;;;;;;;-144.99;98.72;52444.03;5008235;28;20020;-69
2024/03/31 09:01:33;;;;;;;;;;;;;;;-144.99;98.86;52464.41;5014813;28;19929;-68
2024/03/31 09:04:00;;;;;;;;;;;;;;;-144.99;99.00;52486.81;5006985;28;19930;-68
2024/03/31 09:06:27;;;;;;;;;;;;;;;-144.99;98.80;52444.03;5007899;28;20422;-70
2024/03/31 09:08:58;;;;;;;;;;;;;;;-144.99;98.94;52441.97;5008494;28;20387;-69
2024/03/31 09:11:23;;;;;;;;;;;;;;;-144.99;98.98;52419.56;5007317;28;20354;-68
2024/03/31 09:13:50;;;;;;;;;;;;;;;-144.99;98.93;52490.91;4988114;28;19930;-68
2024/03/31 09:16:15;;;;;;;;;;;;;;;-144.99;99.15;52484.78;5008003;28;19991;-68
2024/03/31 09:18:42;;;;;;;;;;;;;;;-144.99;99.09;52476.63;5013002;28;19991;-66
2024/03/31 09:21:08;;;;;;;;;;;;;;;-144.99;99.26;52427.72;5007677;28;20350;-67
2024/03/31 09:23:37;;;;;;;;;;;;;;;-144.99;99.21;52431.78;5009870;28;19933;-68
2024/03/31 09:26:04;;;;;;;;;;;;;;;-144.99;99.09;52456.25;5003745;28;20105;-67
2024/03/31 09:28:30;;;;;;;;;;;;;;;-144.99;99.06;52460.31;5005541;28;19995;-68
2024/03/31 09:30:56;;;;;;;;;;;;;;;-144.99;99.01;52431.78;5013057;28;20020;-67
2024/03/31 09:33:23;;;;;;;;;;;;;;;-144.99;98.99;52480.72;5008321;28;20056;-67
2024/03/31 09:35:50;;;;;;;;;;;;;;;-144.99;99.18;52476.63;5007785;28;20016;-67
2024/03/31 09:38:16;;;;;;;;;;;;;;;-144.99;98.92;52488.84;5012957;28;20323;-67
2024/03/31 09:40:43;;;;;;;;;;;;;;;-144.99;99.12;52478.66;5009205;28;19936;-67
2024/03/31 09:43:10;;;;;;;;;;;;;;;-144.99;99.11;52458.28;5011672;28;19929;-68
2024/03/31 09:45:41;;;;;;;;;;;;;;;-144.99;98.93;52482.75;5005640;28;19977;-67
2024/03/31 09:48:09;;;;;;;;;;;;;;;-144.99;98.91;52462.34;5011153;28;19933;-68
2024/03/31 09:50:37;;;;;;;;;;;;;;;-144.99;98.98;52456.25;5011882;28;19925;-68
2024/03/31 09:53:04;;;;;;;;;;;;;;;-144.99;98.79;52468.47;5010993;28;20455;-67
2024/03/31 09:55:37;;;;;;;;;;;;;;;-144.99;99.50;52448.09;5011843;28;20156;-67
2024/03/31 09:58:08;;;;;;;;;;;;;;;-144.99;99.52;52448.09;5007753;28;19968;-67
2024/03/31 10:00:34;;;;;;;;;;;;;;;-144.99;99.64;52488.84;5005581;28;19937;-66
2024/03/31 10:03:02;;;;;;;;;;;;;;;-144.99;99.77;52472.56;5011245;28;20117;-66
2024/03/31 10:05:32;;;;;;;;;;;;;;;-144.99;99.50;52435.88;5014476;28;19937;-67
2024/03/31 10:07:59;;;;;;;;;;;;;;;-144.99;99.86;52464.41;5011895;28;20325;-67
2024/03/31 10:10:25;;;;;;;;;;;;;;;-144.99;99.86;52452.16;5012025;28;19977;-67
2024/03/31 10:12:52;;;;;;;;;;;;;;;-144.99;99.97;52468.47;5013820;28;19955;-67
2024/03/31 10:15:19;;;;;;;;;;;;;;;-144.99;99.91;52448.09;5011281;28;20399;-67
2024/03/31 10:17:48;;;;;;;;;;;;;;;-144.99;99.93;52466.44;5008884;28;19930;-67
2024/03/31 10:20:16;;;;;;;;;;;;;;;-144.99;99.96;52448.09;5007777;28;19925;-67
2024/03/31 10:22:43;;;;;;;;;;;;;;;-144.99;99.68;52488.84;5009922;28;19948;-68
2024/03/31 10:25:10;;;;;;;;;;;;;;;-144.99;100.00;52464.41;5009224;28;19930;-68
2024/03/31 10:27:37;;;;;;;;;;;;;;;-144.99;99.97;52419.56;5012826;28;20315;-67
2024/03/31 10:30:06;;;;;;;;;;;;;;;-144.99;100.00;52466.44;5007681;28;19956;-67
2024/03/31 10:32:34;;;;;;;;;;;;;;;-144.99;100.00;52456.25;5010648;28;20110;-68
2024/03/31 10:35:00;;;;;;;;;;;;;;;-144.99;100.00;52460.31;5011124;28;19968;-67
2024/03/31 10:37:27;;;;;;;;;;;;;;;-144.99;100.00;52464.41;5010307;28;19975;-67
2024/03/31 10:39:53;;;;;;;;;;;;;;;-144.99;100.00;52415.47;5009480;28;20017;-68
2024/03/31 10:42:21;;;;;;;;;;;;;;;-144.99;100.00;52476.63;5011390;28;20008;-68
2024/03/31 10:44:47;;;;;;;;;;;;;;;-144.99;99.38;52488.84;5011636;28;19941;-66
2024/03/31 10:47:14;;;;;;;;;;;;;;;-144.99;99.36;52448.09;5007733;28;20302;-66
2024/03/31 10:49:41;;;;;;;;;;;;;;;-144.99;99.53;52427.72;5008078;28;20016;-68
2024/03/31 10:52:13;;;;;;;;;;;;;;;-144.99;99.47;52435.88;5014943;28;19937;-67
2024/03/31 10:54:39;;;;;;;;;;;;;;;-144.99;99.72;52446.06;5010776;28;20020;-67
2024/03/31 10:57:11;;;;;;;;;;;;;;;-144.99;99.54;52435.88;5021197;28;20261;-68
2024/03/31 10:59:37;;;;;;;;;;;;;;;-144.99;99.53;52433.81;5007283;28;19965;-66
2024/03/31 11:02:10;;;;;;;;;;;;;;;-144.99;99.37;52423.63;5007584;28;19972;-65
2024/03/31 11:04:36;;;;;;;;;;;;;;;-144.99;99.32;52433.81;5007861;28;19980;-65
2024/03/31 11:07:05;;;;;;;;;;;;;;;-144.99;99.35;52444.03;5010280;28;19925;-65
2024/03/31 11:09:31;;;;;;;;;;;;;;;-144.99;98.88;52484.78;5007768;28;19983;-64
2024/03/31 11:11:58;;;;;;;;;;;;;;;-144.99;99.00;52450.13;5020217;28;19972;-64
2024/03/31 11:14:24;;;;;;;;;;;;;;;-144.99;98.65;52431.78;4995212;28;19959;-65
2024/03/31 11:16:50;;;;;;;;;;;;;;;-144.99;97.59;52460.31;5013807;28;20296;-67
2024/03/31 11:19:16;;;;;;;;;;;;;;;-144.99;98.04;52399.19;5014532;28;20028;-66
2024/03/31 11:21:44;;;;;;;;;;;;;;;-144.99;98.42;52425.66;5005802;28;19953;-68
2024/03/31 11:24:13;;;;;;;;;;;;;;;-144.99;97.55;52435.88;5020904;28;19925;-67
2024/03/31 11:26:39;;;;;;;;;;;;;;;-144.99;97.49;52468.47;5009499;28;20020;-68
2024/03/31 11:29:05;;;;;;;;;;;;;;;-144.99;97.78;52439.94;5014033;28;19925;-67
2024/03/31 11:31:31;;;;;;;;;;;;;;;-144.99;97.55;52407.31;5008456;28;19961;-68
2024/03/31 11:33:58;;;;;;;;;;;;;;;-144.99;97.40;52423.63;5009151;28;20020;-68
2024/03/31 11:36:24;;;;;;;;;;;;;;;-144.99;96.96;52427.72;5009585;28;20395;-67
2024/03/31 11:38:51;;;;;;;;;;;;;;;-144.99;97.08;52427.72;5013040;28;20887;-67
2024/03/31 11:41:18;;;;;;;;;;;;;;;-144.99;97.30;52431.78;5009501;28;19964;-67
2024/03/31 11:43:44;;;;;;;;;;;;;;;-144.99;96.99;52439.94;5017552;28;19979;-66
2024/03/31 11:46:10;;;;;;;;;;;;;;;-144.99;97.12;52399.19;5012112;28;19933;-67
2024/03/31 11:48:36;;;;;;;;;;;;;;;-144.99;96.75;52433.81;5007725;28;19936;-67
2024/03/31 11:51:02;;;;;;;;;;;;;;;-144.99;95.61;52427.72;5009529;28;19953;-68
2024/03/31 11:53:29;;;;;;;;;;;;;;;-144.99;94.88;52395.09;5019278;28;20008;-68
2024/03/31 11:55:54;;;;;;;;;;;;;;;-144.99;95.33;52427.72;5015948;28;19929;-67
2024/03/31 11:58:22;;;;;;;;;;;;;;;-144.99;94.74;52423.63;5008943;28;19971;-66
2024/03/31 12:00:51;;;;;;;;;;;;;;;-144.99;94.51;52419.56;4986536;28;20005;-68
2024/03/31 12:03:18;;;;;;;;;;;;;;;-144.99;94.15;52452.16;5008815;28;19993;-67
2024/03/31 12:05:47;;;;;;;;;;;;;;;-144.99;93.62;52415.47;5010520;28;20362;-67
2024/03/31 12:08:13;;;;;;;;;;;;;;;-144.99;93.37;52433.81;5014431;28;19925;-68
2024/03/31 12:10:39;;;;;;;;;;;;;;;-144.99;93.26;52448.09;5011333;28;20020;-67
2024/03/31 12:13:05;;;;;;;;;;;;;;;-144.99;93.70;52415.47;5012410;28;20408;-67
2024/03/31 12:15:32;;;;;;;;;;;;;;;-144.99;93.78;52391.03;5004647;28;19976;-66
2024/03/31 12:17:59;;;;;;;;;;;;;;;-144.99;94.26;52435.88;5008072;28;19936;-67
2024/03/31 12:20:25;;;;;;;;;;;;;;;-144.99;94.31;52448.09;5009014;28;19933;-67
2024/03/31 12:22:52;;;;;;;;;;;;;;;-144.99;94.41;52439.94;5007657;28;20068;-66